sensor_id;sensor_type;location;lat;lon;timestamp;pressure;altitude;pressure_sealevel;temperature;humidity
1616;BME280;801;47.982;7.810;2023-04-27T00:00:30;98692.66;;;12.45;100.00
1616;BME280;801;47.982;7.810;2023-04-27T00:02:57;98688.09;;;12.36;100.00
1616;BME280;801;47.982;7.810;2023-04-27T00:05:23;98694.56;;;12.24;100.00
1616;BME280;801;47.982;7.810;2023-04-27T00:07:50;98691.03;;;12.19;100.00
1616;BME280;801;47.982;7.810;2023-04-27T00:10:18;98694.56;;;12.35;100.00
1616;BME280;801;47.982;7.810;2023-04-27T00:12:45;98691.31;;;12.33;100.00
1616;BME280;801;47.982;7.810;2023-04-27T00:15:11;98694.81;;;12.33;100.00
1616;BME280;801;47.982;7.810;2023-04-27T00:17:38;98701.00;;;12.39;100.00
1616;BME280;801;47.982;7.810;2023-04-27T00:20:06;98691.31;;;12.33;100.00
1616;BME280;801;47.982;7.810;2023-04-27T00:22:36;98691.31;;;12.33;100.00
1616;BME280;801;47.982;7.810;2023-04-27T00:25:03;98695.91;;;12.42;100.00
1616;BME280;801;47.982;7.810;2023-04-27T00:27:31;98689.69;;;12.37;100.00
1616;BME280;801;47.982;7.810;2023-04-27T00:29:57;98688.91;;;12.26;100.00
1616;BME280;801;47.982;7.810;2023-04-27T00:32:24;98688.06;;;12.15;100.00
1616;BME280;801;47.982;7.810;2023-04-27T00:34:50;98686.72;;;12.23;100.00
1616;BME280;801;47.982;7.810;2023-04-27T00:37:17;98677.28;;;12.20;100.00
1616;BME280;801;47.982;7.810;2023-04-27T00:39:43;98678.38;;;12.19;100.00
1616;BME280;801;47.982;7.810;2023-04-27T00:42:10;98677.03;;;12.27;100.00
1616;BME280;801;47.982;7.810;2023-04-27T00:44:40;98674.59;;;12.25;100.00
1616;BME280;801;47.982;7.810;2023-04-27T00:47:08;98675.16;;;12.22;100.00
1616;BME280;801;47.982;7.810;2023-04-27T00:49:35;98674.06;;;12.29;100.00
1616;BME280;801;47.982;7.810;2023-04-27T00:52:01;98671.63;;;12.27;100.00
1616;BME280;801;47.982;7.810;2023-04-27T00:54:28;98666.50;;;12.41;100.00
1616;BME280;801;47.982;7.810;2023-04-27T00:56:55;98672.72;;;12.52;100.00
1616;BME280;801;47.982;7.810;2023-04-27T00:59:22;98677.84;;;12.48;100.00
1616;BME280;801;47.982;7.810;2023-04-27T01:01:51;98678.91;;;12.57;100.00
1616;BME280;801;47.982;7.810;2023-04-27T01:04:18;98675.94;;;12.64;100.00
1616;BME280;801;47.982;7.810;2023-04-27T01:06:46;98680.50;;;12.74;100.00
1616;BME280;801;47.982;7.810;2023-04-27T01:09:12;98688.09;;;12.61;100.00
1616;BME280;801;47.982;7.810;2023-04-27T01:11:40;98697.47;;;12.02;100.00
1616;BME280;801;47.982;7.810;2023-04-27T01:14:07;98696.69;;;12.22;100.00
1616;BME280;801;47.982;7.810;2023-04-27T01:16:34;98694.81;;;12.23;100.00
1616;BME280;801;47.982;7.810;2023-04-27T01:19:02;98695.91;;;12.22;100.00
1616;BME280;801;47.982;7.810;2023-04-27T01:21:29;98691.47;;;11.85;100.00
1616;BME280;801;47.982;7.810;2023-04-27T01:23:57;98697.22;;;12.14;100.00
1616;BME280;801;47.982;7.810;2023-04-27T01:26:24;98690.25;;;12.29;100.00
1616;BME280;801;47.982;7.810;2023-04-27T01:28:51;98688.88;;;12.21;100.00
1616;BME280;801;47.982;7.810;2023-04-27T01:31:17;98691.84;;;12.14;100.00
1616;BME280;801;47.982;7.810;2023-04-27T01:33:44;98694.28;;;12.26;100.00
1616;BME280;801;47.982;7.810;2023-04-27T01:36:10;98686.72;;;12.18;100.00
1616;BME280;801;47.982;7.810;2023-04-27T01:38:36;98693.47;;;12.10;100.00
1616;BME280;801;47.982;7.810;2023-04-27T01:41:05;98683.22;;;11.97;100.00
1616;BME280;801;47.982;7.810;2023-04-27T01:43:33;98687.81;;;12.22;100.00
1616;BME280;801;47.982;7.810;2023-04-27T01:46:05;98684.84;;;12.18;100.00
1616;BME280;801;47.982;7.810;2023-04-27T01:48:31;98693.75;;;12.29;100.00
1616;BME280;801;47.982;7.810;2023-04-27T01:50:58;98691.84;;;12.19;100.00
1616;BME280;801;47.982;7.810;2023-04-27T01:53:24;98682.69;;;12.36;100.00
1616;BME280;801;47.982;7.810;2023-04-27T01:55:51;98692.13;;;12.33;100.00
1616;BME280;801;47.982;7.810;2023-04-27T01:58:19;98689.69;;;12.37;100.00
1616;BME280;801;47.982;7.810;2023-04-27T02:00:45;98686.19;;;12.46;100.00
1616;BME280;801;47.982;7.810;2023-04-27T02:03:12;98689.97;;;12.30;100.00
1616;BME280;801;47.982;7.810;2023-04-27T02:05:38;98685.91;;;11.97;100.00
1616;BME280;801;47.982;7.810;2023-04-27T02:08:06;98686.41;;;11.94;100.00
1616;BME280;801;47.982;7.810;2023-04-27T02:10:33;98684.81;;;11.98;100.00
1616;BME280;801;47.982;7.810;2023-04-27T02:13:00;98679.97;;;12.05;100.00
1616;BME280;801;47.982;7.810;2023-04-27T02:15:28;98685.06;;;11.91;100.00
1616;BME280;801;47.982;7.810;2023-04-27T02:17:55;98683.72;;;11.94;100.00
1616;BME280;801;47.982;7.810;2023-04-27T02:20:22;98685.63;;;12.19;100.00
1616;BME280;801;47.982;7.810;2023-04-27T02:22:49;98688.59;;;12.28;100.00
1616;BME280;801;47.982;7.810;2023-04-27T02:25:15;98688.63;;;12.43;100.00
1616;BME280;801;47.982;7.810;2023-04-27T02:27:42;98688.63;;;12.48;100.00
1616;BME280;801;47.982;7.810;2023-04-27T02:30:10;98691.84;;;12.45;100.00
1616;BME280;801;47.982;7.810;2023-04-27T02:32:38;98688.91;;;12.41;100.00
1616;BME280;801;47.982;7.810;2023-04-27T02:35:06;98694.00;;;12.38;100.00
1616;BME280;801;47.982;7.810;2023-04-27T02:37:32;98695.09;;;12.42;100.00
1616;BME280;801;47.982;7.810;2023-04-27T02:39:59;98692.66;;;12.40;100.00
1616;BME280;801;47.982;7.810;2023-04-27T02:42:25;98691.03;;;12.50;100.00
1616;BME280;801;47.982;7.810;2023-04-27T02:44:52;98692.13;;;12.49;100.00
1616;BME280;801;47.982;7.810;2023-04-27T02:47:18;98696.44;;;12.55;100.00
1616;BME280;801;47.982;7.810;2023-04-27T02:49:46;98692.13;;;12.54;100.00
1616;BME280;801;47.982;7.810;2023-04-27T02:52:13;98698.88;;;12.51;100.00
1616;BME280;801;47.982;7.810;2023-04-27T02:54:39;98698.06;;;12.40;100.00
1616;BME280;801;47.982;7.810;2023-04-27T02:57:06;98698.88;;;12.46;100.00
1616;BME280;801;47.982;7.810;2023-04-27T02:59:32;98703.16;;;12.37;100.00
1616;BME280;801;47.982;7.810;2023-04-27T03:01:59;98707.50;;;12.33;100.00
1616;BME280;801;47.982;7.810;2023-04-27T03:04:25;98694.25;;;11.90;100.00
1616;BME280;801;47.982;7.810;2023-04-27T03:06:53;98698.25;;;11.88;100.00
1616;BME280;801;47.982;7.810;2023-04-27T03:09:20;98696.69;;;12.02;100.00
1616;BME280;801;47.982;7.810;2023-04-27T03:11:46;98701.25;;;12.12;100.00
1616;BME280;801;47.982;7.810;2023-04-27T03:14:12;98700.44;;;11.91;100.00
1616;BME280;801;47.982;7.810;2023-04-27T03:16:39;98699.38;;;12.07;100.00
1616;BME280;801;47.982;7.810;2023-04-27T03:19:05;98694.81;;;12.13;100.00
1616;BME280;801;47.982;7.810;2023-04-27T03:21:32;98695.09;;;12.21;100.00
1616;BME280;801;47.982;7.810;2023-04-27T03:24:00;98699.38;;;12.28;100.00
1616;BME280;801;47.982;7.810;2023-04-27T03:26:26;98710.44;;;12.31;100.00
1616;BME280;801;47.982;7.810;2023-04-27T03:28:53;98701.03;;;12.29;100.00
1616;BME280;801;47.982;7.810;2023-04-27T03:31:20;98709.09;;;12.23;100.00
1616;BME280;801;47.982;7.810;2023-04-27T03:33:46;98701.03;;;12.23;100.00
1616;BME280;801;47.982;7.810;2023-04-27T03:36:13;98702.63;;;12.19;100.00
1616;BME280;801;47.982;7.810;2023-04-27T03:38:39;98699.38;;;12.07;100.00
1616;BME280;801;47.982;7.810;2023-04-27T03:41:07;98711.19;;;12.01;100.00
1616;BME280;801;47.982;7.810;2023-04-27T03:43:33;98709.88;;;12.03;100.00
1616;BME280;801;47.982;7.810;2023-04-27T03:46:00;98708.50;;;12.01;100.00
1616;BME280;801;47.982;7.810;2023-04-27T03:48:26;98705.28;;;11.94;100.00
1616;BME280;801;47.982;7.810;2023-04-27T03:50:53;98707.38;;;11.87;100.00
1616;BME280;801;47.982;7.810;2023-04-27T03:53:20;98697.41;;;11.82;100.00
1616;BME280;801;47.982;7.810;2023-04-27T03:55:46;98709.22;;;11.76;100.00
1616;BME280;801;47.982;7.810;2023-04-27T03:58:14;98701.16;;;11.81;100.00
1616;BME280;801;47.982;7.810;2023-04-27T04:00:41;98704.72;;;11.92;100.00
1616;BME280;801;47.982;7.810;2023-04-27T04:03:08;98710.94;;;11.97;100.00
1616;BME280;801;47.982;7.810;2023-04-27T04:05:34;98709.06;;;11.98;100.00
1616;BME280;801;47.982;7.810;2023-04-27T04:08:01;98701.00;;;12.08;100.00
1616;BME280;801;47.982;7.810;2023-04-27T04:10:27;98698.84;;;12.10;100.00
1616;BME280;801;47.982;7.810;2023-04-27T04:12:54;98692.94;;;12.08;100.00
1616;BME280;801;47.982;7.810;2023-04-27T04:15:22;98703.16;;;12.11;100.00
1616;BME280;801;47.982;7.810;2023-04-27T04:17:48;98704.75;;;12.12;100.00
1616;BME280;801;47.982;7.810;2023-04-27T04:20:15;98708.53;;;12.16;100.00
1616;BME280;801;47.982;7.810;2023-04-27T04:22:41;98712.31;;;12.20;100.00
1616;BME280;801;47.982;7.810;2023-04-27T04:25:08;98720.41;;;12.20;100.00
1616;BME280;801;47.982;7.810;2023-04-27T04:27:35;98717.72;;;12.25;100.00
1616;BME280;801;47.982;7.810;2023-04-27T04:30:02;98722.03;;;12.21;100.00
1616;BME280;801;47.982;7.810;2023-04-27T04:32:32;98712.06;;;12.17;100.00
1616;BME280;801;47.982;7.810;2023-04-27T04:34:58;98712.31;;;12.10;100.00
1616;BME280;801;47.982;7.810;2023-04-27T04:37:26;98697.75;;;12.11;100.00
1616;BME280;801;47.982;7.810;2023-04-27T04:39:52;98694.53;;;12.09;100.00
1616;BME280;801;47.982;7.810;2023-04-27T04:42:19;98695.03;;;12.01;100.00
1616;BME280;801;47.982;7.810;2023-04-27T04:44:45;98689.66;;;12.01;100.00
1616;BME280;801;47.982;7.810;2023-04-27T04:47:12;98688.03;;;11.90;100.00
1616;BME280;801;47.982;7.810;2023-04-27T04:49:40;98689.59;;;11.80;100.00
1616;BME280;801;47.982;7.810;2023-04-27T04:52:06;98687.44;;;11.72;100.00
1616;BME280;801;47.982;7.810;2023-04-27T04:54:33;98688.50;;;11.76;100.00
1616;BME280;801;47.982;7.810;2023-04-27T04:56:59;98686.34;;;11.78;100.00
1616;BME280;801;47.982;7.810;2023-04-27T04:59:26;98690.69;;;11.79;100.00
1616;BME280;801;47.982;7.810;2023-04-27T05:01:53;98684.75;;;11.82;100.00
1616;BME280;801;47.982;7.810;2023-04-27T05:04:20;98697.19;;;11.89;100.00
1616;BME280;801;47.982;7.810;2023-04-27T05:06:48;98692.31;;;11.86;100.00
1616;BME280;801;47.982;7.810;2023-04-27T05:09:14;98700.44;;;11.91;100.00
1616;BME280;801;47.982;7.810;2023-04-27T05:11:41;98700.38;;;11.80;100.00
1616;BME280;801;47.982;7.810;2023-04-27T05:14:07;98701.41;;;11.64;100.00
1616;BME280;801;47.982;7.810;2023-04-27T05:16:34;98705.16;;;11.63;100.00
1616;BME280;801;47.982;7.810;2023-04-27T05:19:00;98709.47;;;11.69;100.00
1616;BME280;801;47.982;7.810;2023-04-27T05:21:27;98716.75;;;11.74;100.00
1616;BME280;801;47.982;7.810;2023-04-27T05:23:54;98715.47;;;11.87;100.00
1616;BME280;801;47.982;7.810;2023-04-27T05:26:21;98729.00;;;12.02;100.00
1616;BME280;801;47.982;7.810;2023-04-27T05:28:47;98731.16;;;12.00;100.00
1616;BME280;801;47.982;7.810;2023-04-27T05:31:14;98735.09;;;11.82;100.00
1616;BME280;801;47.982;7.810;2023-04-27T05:33:41;98735.34;;;11.75;100.00
1616;BME280;801;47.982;7.810;2023-04-27T05:36:08;98739.94;;;11.75;100.00
1616;BME280;801;47.982;7.810;2023-04-27T05:38:35;98753.94;;;11.77;100.00
1616;BME280;801;47.982;7.810;2023-04-27T05:41:05;98743.41;;;11.70;100.00
1616;BME280;801;47.982;7.810;2023-04-27T05:43:32;98742.38;;;11.87;100.00
1616;BME280;801;47.982;7.810;2023-04-27T05:45:59;98745.13;;;11.92;100.00
1616;BME280;801;47.982;7.810;2023-04-27T05:48:26;98751.63;;;12.06;100.00
1616;BME280;801;47.982;7.810;2023-04-27T05:50:58;98759.75;;;12.21;100.00
1616;BME280;801;47.982;7.810;2023-04-27T05:53:25;98758.13;;;12.10;100.00
1616;BME280;801;47.982;7.810;2023-04-27T05:55:52;98753.22;;;11.97;100.00
1616;BME280;801;47.982;7.810;2023-04-27T05:58:20;98750.91;;;11.63;100.00
1616;BME280;801;47.982;7.810;2023-04-27T06:00:47;98760.22;;;12.03;100.00
1616;BME280;801;47.982;7.810;2023-04-27T06:03:14;98764.44;;;11.78;100.00
1616;BME280;801;47.982;7.810;2023-04-27T06:05:40;98773.69;;;11.93;100.00
1616;BME280;801;47.982;7.810;2023-04-27T06:08:07;98766.06;;;11.84;100.00
1616;BME280;801;47.982;7.810;2023-04-27T06:10:33;98767.81;;;12.06;100.00
1616;BME280;801;47.982;7.810;2023-04-27T06:13:01;98780.72;;;12.04;100.00
1616;BME280;801;47.982;7.810;2023-04-27T06:15:28;98782.63;;;12.14;100.00
1616;BME280;801;47.982;7.810;2023-04-27T06:17:55;98787.75;;;12.15;100.00
1616;BME280;801;47.982;7.810;2023-04-27T06:20:22;98783.47;;;12.30;100.00
1616;BME280;801;47.982;7.810;2023-04-27T06:22:48;98785.13;;;12.51;100.00
1616;BME280;801;47.982;7.810;2023-04-27T06:25:15;98785.69;;;12.69;100.00
1616;BME280;801;47.982;7.810;2023-04-27T06:27:41;98783.00;;;12.84;100.00
1616;BME280;801;47.982;7.810;2023-04-27T06:30:09;98794.84;;;12.93;100.00
1616;BME280;801;47.982;7.810;2023-04-27T06:32:37;98781.88;;;12.90;100.00
1616;BME280;801;47.982;7.810;2023-04-27T06:35:04;98780.81;;;12.91;100.00
1616;BME280;801;47.982;7.810;2023-04-27T06:37:30;98788.38;;;13.04;100.00
1616;BME280;801;47.982;7.810;2023-04-27T06:39:57;98780.78;;;13.12;100.00
1616;BME280;801;47.982;7.810;2023-04-27T06:42:23;98785.66;;;13.20;100.00
1616;BME280;801;47.982;7.810;2023-04-27T06:44:52;98788.31;;;13.25;100.00
1616;BME280;801;47.982;7.810;2023-04-27T06:47:19;98790.50;;;13.23;100.00
1616;BME280;801;47.982;7.810;2023-04-27T06:49:47;98788.63;;;13.28;100.00
1616;BME280;801;47.982;7.810;2023-04-27T06:52:13;98782.13;;;13.29;100.00
1616;BME280;801;47.982;7.810;2023-04-27T06:54:40;98792.13;;;13.34;100.00
1616;BME280;801;47.982;7.810;2023-04-27T06:57:06;98785.38;;;13.42;100.00
1616;BME280;801;47.982;7.810;2023-04-27T06:59:34;98788.56;;;13.49;100.00
1616;BME280;801;47.982;7.810;2023-04-27T07:02:00;98794.75;;;13.60;100.00
1616;BME280;801;47.982;7.810;2023-04-27T07:04:27;98791.78;;;13.61;100.00
1616;BME280;801;47.982;7.810;2023-04-27T07:06:55;98785.50;;;13.76;100.00
1616;BME280;801;47.982;7.810;2023-04-27T07:09:22;98777.38;;;13.86;100.00
1616;BME280;801;47.982;7.810;2023-04-27T07:11:49;98783.09;;;13.80;100.00
1616;BME280;801;47.982;7.810;2023-04-27T07:14:15;98788.19;;;13.81;100.00
1616;BME280;801;47.982;7.810;2023-04-27T07:16:42;98780.59;;;13.94;100.00
1616;BME280;801;47.982;7.810;2023-04-27T07:19:08;98789.22;;;13.90;100.00
1616;BME280;801;47.982;7.810;2023-04-27T07:21:35;98777.00;;;14.03;100.00
1616;BME280;801;47.982;7.810;2023-04-27T07:24:03;98773.97;;;14.15;99.43
1616;BME280;801;47.982;7.810;2023-04-27T07:26:30;98779.75;;;13.98;98.04
1616;BME280;801;47.982;7.810;2023-04-27T07:28:57;98778.56;;;14.15;98.86
1616;BME280;801;47.982;7.810;2023-04-27T07:31:23;98778.88;;;14.08;95.97
1616;BME280;801;47.982;7.810;2023-04-27T07:33:50;98773.47;;;14.08;96.51
1616;BME280;801;47.982;7.810;2023-04-27T07:36:17;98771.97;;;13.86;99.10
1616;BME280;801;47.982;7.810;2023-04-27T07:38:44;98772.63;;;14.18;99.51
1616;BME280;801;47.982;7.810;2023-04-27T07:41:12;98769.09;;;14.22;100.00
1616;BME280;801;47.982;7.810;2023-04-27T07:43:38;98757.69;;;14.25;100.00
1616;BME280;801;47.982;7.810;2023-04-27T07:46:06;98765.75;;;14.30;97.83
1616;BME280;801;47.982;7.810;2023-04-27T07:48:33;98761.81;;;14.18;98.69
1616;BME280;801;47.982;7.810;2023-04-27T07:51:00;98769.03;;;14.27;97.19
1616;BME280;801;47.982;7.810;2023-04-27T07:53:27;98768.56;;;14.60;95.36
1616;BME280;801;47.982;7.810;2023-04-27T07:55:53;98764.03;;;14.50;92.76
1616;BME280;801;47.982;7.810;2023-04-27T07:58:21;98763.06;;;14.36;90.70
1616;BME280;801;47.982;7.810;2023-04-27T08:00:47;98764.38;;;14.38;89.99
1616;BME280;801;47.982;7.810;2023-04-27T08:03:14;98763.53;;;14.43;89.45
1616;BME280;801;47.982;7.810;2023-04-27T08:05:41;98762.47;;;14.39;90.62
1616;BME280;801;47.982;7.810;2023-04-27T08:08:08;98773.44;;;14.63;89.79
1616;BME280;801;47.982;7.810;2023-04-27T08:10:34;98763.75;;;14.46;92.07
1616;BME280;801;47.982;7.810;2023-04-27T08:13:02;98773.25;;;14.44;91.48
1616;BME280;801;47.982;7.810;2023-04-27T08:15:30;98775.94;;;14.44;91.60
1616;BME280;801;47.982;7.810;2023-04-27T08:17:57;98769.41;;;14.55;89.26
1616;BME280;801;47.982;7.810;2023-04-27T08:20:23;98774.97;;;14.74;91.19
1616;BME280;801;47.982;7.810;2023-04-27T08:22:50;98765.53;;;14.66;91.94
1616;BME280;801;47.982;7.810;2023-04-27T08:25:17;98771.59;;;14.87;93.33
1616;BME280;801;47.982;7.810;2023-04-27T08:27:43;98766.94;;;14.93;93.66
1616;BME280;801;47.982;7.810;2023-04-27T08:30:10;98762.28;;;14.69;94.50
1616;BME280;801;47.982;7.810;2023-04-27T08:32:38;98765.00;;;14.64;95.64
1616;BME280;801;47.982;7.810;2023-04-27T08:35:05;98766.00;;;14.79;94.36
1616;BME280;801;47.982;7.810;2023-04-27T08:37:32;98762.63;;;14.92;92.88
1616;BME280;801;47.982;7.810;2023-04-27T08:39:58;98760.31;;;15.09;95.19
1616;BME280;801;47.982;7.810;2023-04-27T08:42:25;98759.97;;;15.40;94.98
1616;BME280;801;47.982;7.810;2023-04-27T08:44:51;98759.41;;;15.43;91.04
1616;BME280;801;47.982;7.810;2023-04-27T08:47:18;98756.13;;;15.46;93.06
1616;BME280;801;47.982;7.810;2023-04-27T08:49:46;98752.13;;;15.63;90.52
1616;BME280;801;47.982;7.810;2023-04-27T08:52:13;98750.34;;;15.29;90.40
1616;BME280;801;47.982;7.810;2023-04-27T08:54:40;98756.75;;;15.14;90.72
1616;BME280;801;47.982;7.810;2023-04-27T08:57:09;98747.13;;;15.27;90.48
1616;BME280;801;47.982;7.810;2023-04-27T08:59:36;98746.59;;;15.49;92.04
1616;BME280;801;47.982;7.810;2023-04-27T09:02:02;98755.03;;;15.23;90.45
1616;BME280;801;47.982;7.810;2023-04-27T09:04:36;98754.00;;;15.43;91.30
1616;BME280;801;47.982;7.810;2023-04-27T09:07:10;98753.34;;;15.51;90.35
1616;BME280;801;47.982;7.810;2023-04-27T09:09:37;98759.63;;;15.47;88.67
1616;BME280;801;47.982;7.810;2023-04-27T09:12:13;98766.78;;;15.62;89.38
1616;BME280;801;47.982;7.810;2023-04-27T09:14:40;98762.91;;;15.44;90.21
1616;BME280;801;47.982;7.810;2023-04-27T09:17:07;98747.81;;;15.38;90.68
1616;BME280;801;47.982;7.810;2023-04-27T09:19:33;98752.81;;;15.97;91.58
1616;BME280;801;47.982;7.810;2023-04-27T09:22:04;98753.13;;;16.15;90.05
1616;BME280;801;47.982;7.810;2023-04-27T09:24:33;98757.63;;;16.38;89.45
1616;BME280;801;47.982;7.810;2023-04-27T09:27:00;98746.16;;;16.28;88.29
1616;BME280;801;47.982;7.810;2023-04-27T09:29:34;98752.69;;;16.46;92.78
1616;BME280;801;47.982;7.810;2023-04-27T09:32:01;98753.75;;;16.96;88.39
1616;BME280;801;47.982;7.810;2023-04-27T09:34:38;98759.13;;;17.15;87.12
1616;BME280;801;47.982;7.810;2023-04-27T09:37:05;98746.06;;;17.45;85.55
1616;BME280;801;47.982;7.810;2023-04-27T09:39:34;98757.44;;;17.19;76.79
1616;BME280;801;47.982;7.810;2023-04-27T09:42:01;98757.72;;;17.18;77.99
1616;BME280;801;47.982;7.810;2023-04-27T09:44:28;98754.84;;;17.56;79.19
1616;BME280;801;47.982;7.810;2023-04-27T09:46:57;98750.09;;;17.89;73.57
1616;BME280;801;47.982;7.810;2023-04-27T09:49:25;98755.34;;;17.58;74.47
1616;BME280;801;47.982;7.810;2023-04-27T09:51:52;98749.06;;;17.02;74.30
1616;BME280;801;47.982;7.810;2023-04-27T09:54:23;98746.97;;;17.27;72.33
1616;BME280;801;47.982;7.810;2023-04-27T09:56:59;98744.16;;;17.73;75.76
1616;BME280;801;47.982;7.810;2023-04-27T09:59:45;98743.97;;;17.56;71.79
1616;BME280;801;47.982;7.810;2023-04-27T10:02:15;98731.00;;;18.17;74.44
1616;BME280;801;47.982;7.810;2023-04-27T10:05:06;98736.09;;;18.32;71.30
1616;BME280;801;47.982;7.810;2023-04-27T10:07:37;98728.50;;;18.65;69.78
1616;BME280;801;47.982;7.810;2023-04-27T10:10:05;98731.28;;;18.74;67.19
1616;BME280;801;47.982;7.810;2023-04-27T10:12:34;98741.25;;;17.97;65.05
1616;BME280;801;47.982;7.810;2023-04-27T10:15:11;98732.19;;;17.88;66.43
1616;BME280;801;47.982;7.810;2023-04-27T10:17:46;98730.72;;;18.18;66.12
1616;BME280;801;47.982;7.810;2023-04-27T10:20:13;98731.50;;;18.19;67.23
1616;BME280;801;47.982;7.810;2023-04-27T10:22:42;98734.50;;;18.31;65.84
1616;BME280;801;47.982;7.810;2023-04-27T10:25:15;98723.69;;;18.40;66.78
1616;BME280;801;47.982;7.810;2023-04-27T10:27:47;98727.56;;;18.93;66.05
1616;BME280;801;47.982;7.810;2023-04-27T10:30:16;98728.78;;;19.49;64.79
1616;BME280;801;47.982;7.810;2023-04-27T10:32:49;98732.63;;;19.48;65.22
1616;BME280;801;47.982;7.810;2023-04-27T10:35:18;98723.19;;;19.14;66.43
1616;BME280;801;47.982;7.810;2023-04-27T10:37:45;98722.47;;;18.10;67.37
1616;BME280;801;47.982;7.810;2023-04-27T10:40:13;98717.75;;;18.83;67.75
1616;BME280;801;47.982;7.810;2023-04-27T10:42:43;98714.91;;;18.43;63.09
1616;BME280;801;47.982;7.810;2023-04-27T10:45:10;98714.84;;;18.57;62.36
1616;BME280;801;47.982;7.810;2023-04-27T10:47:38;98715.69;;;18.88;61.34
1616;BME280;801;47.982;7.810;2023-04-27T10:50:07;98726.34;;;18.54;63.22
1616;BME280;801;47.982;7.810;2023-04-27T10:52:35;98716.38;;;18.72;62.49
1616;BME280;801;47.982;7.810;2023-04-27T10:55:12;98716.69;;;18.93;58.21
1616;BME280;801;47.982;7.810;2023-04-27T10:57:46;98717.66;;;19.28;53.88
1616;BME280;801;47.982;7.810;2023-04-27T11:00:14;98718.94;;;19.70;53.94
1616;BME280;801;47.982;7.810;2023-04-27T11:02:43;98714.97;;;19.85;55.33
1616;BME280;801;47.982;7.810;2023-04-27T11:05:16;98709.66;;;19.72;55.49
1616;BME280;801;47.982;7.810;2023-04-27T11:07:43;98714.34;;;20.15;57.20
1616;BME280;801;47.982;7.810;2023-04-27T11:10:14;98705.81;;;20.60;54.34
1616;BME280;801;47.982;7.810;2023-04-27T11:12:40;98698.47;;;20.34;54.52
1616;BME280;801;47.982;7.810;2023-04-27T11:15:09;98697.16;;;20.40;56.19
1616;BME280;801;47.982;7.810;2023-04-27T11:17:36;98698.78;;;20.59;53.93
1616;BME280;801;47.982;7.810;2023-04-27T11:20:03;98683.03;;;20.38;54.10
1616;BME280;801;47.982;7.810;2023-04-27T11:22:31;98688.19;;;21.04;54.65
1616;BME280;801;47.982;7.810;2023-04-27T11:24:58;98695.88;;;20.46;51.95
1616;BME280;801;47.982;7.810;2023-04-27T11:27:35;98682.72;;;20.57;53.45
1616;BME280;801;47.982;7.810;2023-04-27T11:30:02;98679.97;;;20.48;48.33
1616;BME280;801;47.982;7.810;2023-04-27T11:32:31;98675.00;;;20.33;47.91
1616;BME280;801;47.982;7.810;2023-04-27T11:34:57;98687.53;;;19.99;47.74
1616;BME280;801;47.982;7.810;2023-04-27T11:37:25;98679.84;;;20.36;48.28
1616;BME280;801;47.982;7.810;2023-04-27T11:39:52;98682.78;;;20.96;48.55
1616;BME280;801;47.982;7.810;2023-04-27T11:42:21;98683.44;;;21.61;48.26
1616;BME280;801;47.982;7.810;2023-04-27T11:44:52;98682.50;;;21.18;47.29
1616;BME280;801;47.982;7.810;2023-04-27T11:47:19;98683.97;;;21.15;45.22
1616;BME280;801;47.982;7.810;2023-04-27T11:49:48;98682.72;;;20.14;46.79
1616;BME280;801;47.982;7.810;2023-04-27T11:52:15;98677.56;;;19.86;47.94
1616;BME280;801;47.982;7.810;2023-04-27T11:54:47;98672.97;;;20.94;45.47
1616;BME280;801;47.982;7.810;2023-04-27T11:57:13;98671.28;;;22.00;45.94
1616;BME280;801;47.982;7.810;2023-04-27T11:59:40;98671.66;;;21.48;44.23
1616;BME280;801;47.982;7.810;2023-04-27T12:02:07;98666.13;;;21.18;48.82
1616;BME280;801;47.982;7.810;2023-04-27T12:04:34;98669.75;;;21.31;43.41
1616;BME280;801;47.982;7.810;2023-04-27T12:07:01;98673.97;;;21.58;43.72
1616;BME280;801;47.982;7.810;2023-04-27T12:09:29;98665.03;;;21.49;42.52
1616;BME280;801;47.982;7.810;2023-04-27T12:11:55;98667.94;;;22.15;40.20
1616;BME280;801;47.982;7.810;2023-04-27T12:14:22;98660.72;;;22.65;39.29
1616;BME280;801;47.982;7.810;2023-04-27T12:16:49;98660.94;;;22.27;39.12
1616;BME280;801;47.982;7.810;2023-04-27T12:19:15;98656.63;;;22.71;40.94
1616;BME280;801;47.982;7.810;2023-04-27T12:21:42;98652.53;;;22.11;39.91
1616;BME280;801;47.982;7.810;2023-04-27T12:24:10;98657.78;;;21.53;40.33
1616;BME280;801;47.982;7.810;2023-04-27T12:26:37;98655.31;;;21.60;40.56
1616;BME280;801;47.982;7.810;2023-04-27T12:29:03;98642.69;;;21.17;42.40
1616;BME280;801;47.982;7.810;2023-04-27T12:31:31;98649.72;;;21.18;40.83
1616;BME280;801;47.982;7.810;2023-04-27T12:33:58;98655.56;;;21.08;40.21
1616;BME280;801;47.982;7.810;2023-04-27T12:36:24;98662.28;;;21.19;38.65
1616;BME280;801;47.982;7.810;2023-04-27T12:38:51;98657.31;;;21.12;39.66
1616;BME280;801;47.982;7.810;2023-04-27T12:41:19;98658.72;;;22.20;38.67
1616;BME280;801;47.982;7.810;2023-04-27T12:43:47;98654.59;;;22.80;39.27
1616;BME280;801;47.982;7.810;2023-04-27T12:46:14;98670.50;;;21.49;38.77
1616;BME280;801;47.982;7.810;2023-04-27T12:48:40;98657.78;;;22.37;39.05
1616;BME280;801;47.982;7.810;2023-04-27T12:51:07;98653.28;;;22.53;39.17
1616;BME280;801;47.982;7.810;2023-04-27T12:53:33;98645.72;;;22.50;39.82
1616;BME280;801;47.982;7.810;2023-04-27T12:56:00;98646.16;;;23.72;38.66
1616;BME280;801;47.982;7.810;2023-04-27T12:58:30;98636.09;;;23.88;39.32
1616;BME280;801;47.982;7.810;2023-04-27T13:00:56;98641.47;;;23.85;36.92
1616;BME280;801;47.982;7.810;2023-04-27T13:03:23;98637.50;;;22.96;38.99
1616;BME280;801;47.982;7.810;2023-04-27T13:05:49;98637.72;;;22.33;38.78
1616;BME280;801;47.982;7.810;2023-04-27T13:08:16;98630.03;;;22.59;39.00
1616;BME280;801;47.982;7.810;2023-04-27T13:10:43;98639.19;;;23.74;38.47
1616;BME280;801;47.982;7.810;2023-04-27T13:13:09;98634.38;;;24.40;38.21
1616;BME280;801;47.982;7.810;2023-04-27T13:15:37;98638.53;;;23.28;35.51
1616;BME280;801;47.982;7.810;2023-04-27T13:18:04;98640.75;;;22.77;36.38
1616;BME280;801;47.982;7.810;2023-04-27T13:20:31;98638.63;;;22.83;36.10
1616;BME280;801;47.982;7.810;2023-04-27T13:22:57;98640.75;;;22.77;36.08
1616;BME280;801;47.982;7.810;2023-04-27T13:25:24;98631.97;;;22.26;35.53
1616;BME280;801;47.982;7.810;2023-04-27T13:27:51;98637.84;;;22.15;37.62